Time;durP1;ratioP1;P1;durP2;ratioP2;P2;SDS_P1;SDS_P2;PMS_P1;PMS_P2;Temp;Humidity;BMP_temperature;BMP_pressure;BME280_temperature;BME280_humidity;BME280_pressure;Samples;Min_cycle;Max_cycle;Signal;HPM_P1;HPM_P2
2021/12/01 04:00:34;;;;;;;2.40;1.00;;;5.60;88.40;;;;;;6028192;23;20378;31
2021/12/01 04:03:03;;;;;;;2.10;0.80;;;5.70;88.30;;;;;;4953739;29;20466;-73
2021/12/01 04:05:29;;;;;;;2.33;0.90;;;5.80;88.20;;;;;;4956134;28;20443;-73
2021/12/01 04:07:57;;;;;;;2.20;0.87;;;5.80;87.30;;;;;;4955930;28;20513;-73
2021/12/01 04:10:24;;;;;;;2.20;0.80;;;5.90;87.20;;;;;;4955390;28;20460;-73
2021/12/01 04:12:51;;;;;;;2.10;0.80;;;6.00;86.80;;;;;;4936831;29;20531;-72
2021/12/01 04:15:29;;;;;;;2.10;0.70;;;6.10;86.70;;;;;;4936815;29;20487;-73
2021/12/01 04:17:55;;;;;;;2.17;0.80;;;6.20;86.50;;;;;;4936697;29;20495;-73
2021/12/01 04:20:25;;;;;;;2.10;0.80;;;6.20;85.70;;;;;;4936631;29;20451;-73
2021/12/01 04:22:52;;;;;;;2.20;0.97;;;6.10;86.40;;;;;;4936540;29;20451;-73
2021/12/01 04:25:18;;;;;;;2.60;1.07;;;6.10;86.20;;;;;;4936592;29;20452;-73
2021/12/01 04:27:45;;;;;;;2.03;0.70;;;6.00;87.00;;;;;;4936571;29;20458;-73
2021/12/01 04:30:15;;;;;;;2.30;0.90;;;5.80;87.10;;;;;;4936478;29;20480;-72
2021/12/01 04:32:42;;;;;;;2.20;0.90;;;5.90;87.80;;;;;;4935922;29;20468;-72
2021/12/01 04:35:09;;;;;;;1.93;0.67;;;5.80;87.30;;;;;;4936488;29;20491;-73
2021/12/01 04:37:37;;;;;;;2.30;1.00;;;5.80;87.60;;;;;;4936391;29;20456;-73
2021/12/01 04:40:06;;;;;;;2.00;0.80;;;5.90;87.80;;;;;;4936385;29;20455;-73
2021/12/01 04:42:33;;;;;;;2.17;0.80;;;5.90;87.40;;;;;;4936399;29;20494;-72
2021/12/01 04:45:00;;;;;;;3.90;0.80;;;5.90;87.60;;;;;;4936094;29;20507;-73
2021/12/01 04:47:28;;;;;;;2.20;0.90;;;6.00;87.30;;;;;;4936498;29;20451;-73
2021/12/01 04:49:56;;;;;;;2.03;0.73;;;6.00;87.10;;;;;;4936526;29;20491;-73
2021/12/01 04:52:23;;;;;;;2.07;0.90;;;6.00;87.00;;;;;;4936322;29;20471;-72
2021/12/01 04:54:51;;;;;;;2.40;0.80;;;6.00;87.00;;;;;;4936020;29;20810;-72
2021/12/01 04:57:17;;;;;;;1.97;0.63;;;5.90;87.00;;;;;;4936416;29;20460;-73
2021/12/01 04:59:45;;;;;;;2.30;0.80;;;5.90;87.00;;;;;;4936202;29;20452;-72
2021/12/01 05:02:11;;;;;;;2.00;0.60;;;5.90;87.30;;;;;;4935925;29;20900;-73
2021/12/01 05:04:40;;;;;;;2.10;0.80;;;6.00;87.30;;;;;;4936335;29;20573;-73
2021/12/01 05:07:07;;;;;;;2.10;0.70;;;5.80;87.30;;;;;;4936493;29;20452;-73
2021/12/01 05:09:33;;;;;;;2.20;0.80;;;5.90;87.20;;;;;;4936773;29;20455;-73
2021/12/01 05:12:01;;;;;;;2.00;0.77;;;5.90;87.20;;;;;;4936197;29;20823;-73
2021/12/01 05:14:28;;;;;;;2.33;0.70;;;5.80;87.50;;;;;;4936036;29;20834;-73
2021/12/01 05:16:56;;;;;;;2.07;0.70;;;5.80;87.80;;;;;;4935681;29;20923;-73
2021/12/01 05:19:22;;;;;;;2.00;0.70;;;5.80;87.60;;;;;;4936005;29;20452;-73
2021/12/01 05:21:49;;;;;;;2.07;0.73;;;5.90;87.90;;;;;;4936434;29;20471;-73
2021/12/01 05:24:16;;;;;;;2.17;0.80;;;5.90;87.00;;;;;;4935976;29;20447;-73
2021/12/01 05:26:42;;;;;;;1.97;0.70;;;5.90;87.60;;;;;;4935971;29;20448;-73
2021/12/01 05:29:10;;;;;;;2.10;0.73;;;6.00;87.20;;;;;;4935935;29;20518;-73
2021/12/01 05:31:37;;;;;;;2.10;0.70;;;5.90;87.20;;;;;;4935604;29;21050;-73
2021/12/01 05:34:04;;;;;;;2.20;0.80;;;5.90;87.10;;;;;;4936324;29;20510;-73
2021/12/01 05:36:31;;;;;;;2.10;0.70;;;6.00;87.00;;;;;;4935717;29;20483;-73
2021/12/01 05:38:58;;;;;;;1.90;0.60;;;6.00;86.90;;;;;;4935764;29;20451;-73
2021/12/01 05:41:25;;;;;;;1.90;0.60;;;6.00;86.60;;;;;;4935766;29;20471;-73
2021/12/01 05:43:52;;;;;;;2.93;0.73;;;6.20;86.20;;;;;;4937943;29;20448;-73
2021/12/01 05:46:20;;;;;;;2.00;0.63;;;6.30;85.90;;;;;;4939346;29;20443;-73
2021/12/01 05:48:46;;;;;;;2.00;0.70;;;6.20;86.10;;;;;;4938915;29;20860;-73
2021/12/01 05:51:13;;;;;;;2.03;0.70;;;6.20;85.90;;;;;;4938833;29;21058;-73
2021/12/01 05:53:40;;;;;;;2.00;0.70;;;6.20;85.80;;;;;;4939221;29;20856;-73
2021/12/01 05:56:06;;;;;;;2.00;0.70;;;6.20;86.40;;;;;;4939093;29;20534;-73
2021/12/01 05:58:33;;;;;;;2.10;0.70;;;6.20;86.40;;;;;;4939490;29;20448;-73
2021/12/01 06:01:00;;;;;;;2.53;0.80;;;6.20;86.80;;;;;;4938898;29;20483;-74
2021/12/01 06:03:28;;;;;;;2.10;0.70;;;6.30;86.00;;;;;;4939281;29;20444;-74
2021/12/01 06:05:55;;;;;;;2.10;0.70;;;6.40;86.20;;;;;;4939163;29;20543;-73
2021/12/01 06:08:22;;;;;;;2.00;0.70;;;6.30;85.80;;;;;;4939051;29;20451;-73
2021/12/01 06:10:49;;;;;;;2.00;0.70;;;6.30;86.30;;;;;;4939104;29;20467;-73
2021/12/01 06:13:17;;;;;;;3.33;1.10;;;6.30;86.00;;;;;;4938937;29;20819;-73
2021/12/01 06:15:44;;;;;;;1.90;0.60;;;6.30;86.10;;;;;;4938541;29;21010;-73
2021/12/01 06:18:12;;;;;;;2.20;0.80;;;6.30;86.20;;;;;;4938756;29;20584;-73
2021/12/01 06:20:40;;;;;;;2.10;0.63;;;6.30;86.50;;;;;;4938544;29;20452;-74
2021/12/01 06:23:07;;;;;;;2.00;0.60;;;6.30;86.20;;;;;;4938377;29;20444;-73
2021/12/01 06:25:34;;;;;;;2.10;0.60;;;6.40;86.40;;;;;;4938220;29;20512;-74
2021/12/01 06:28:01;;;;;;;2.30;0.70;;;6.50;86.00;;;;;;4938575;29;20452;-73
2021/12/01 06:30:32;;;;;;;2.00;0.70;;;6.40;85.80;;;;;;4938429;29;20456;-73
2021/12/01 06:32:59;;;;;;;2.20;0.80;;;6.40;86.20;;;;;;4938483;29;20448;-73
2021/12/01 06:35:26;;;;;;;2.10;0.70;;;6.40;86.20;;;;;;4938281;29;20456;-74
2021/12/01 06:37:55;;;;;;;1.97;0.60;;;6.40;86.10;;;;;;4938332;29;20451;-74
2021/12/01 06:40:22;;;;;;;2.33;0.70;;;6.40;86.20;;;;;;4938325;29;20506;-73
2021/12/01 06:42:49;;;;;;;2.10;0.70;;;6.40;86.00;;;;;;4938305;29;20444;-74
2021/12/01 06:45:16;;;;;;;2.00;0.60;;;6.60;86.00;;;;;;4938237;29;20443;-74
2021/12/01 06:47:44;;;;;;;2.10;0.70;;;6.60;84.90;;;;;;4939065;29;20526;-74
2021/12/01 06:50:14;;;;;;;2.30;0.73;;;6.60;85.20;;;;;;4938176;29;20451;-73
2021/12/01 06:52:41;;;;;;;2.00;0.63;;;6.60;85.10;;;;;;4938123;29;20468;-74
2021/12/01 06:55:10;;;;;;;2.07;0.70;;;6.70;84.50;;;;;;4937179;29;20456;-74
2021/12/01 06:57:37;;;;;;;1.93;0.60;;;6.70;84.50;;;;;;4938009;29;20494;-74
2021/12/01 07:00:06;;;;;;;2.07;0.60;;;6.70;84.30;;;;;;4938004;29;20452;-74
2021/12/01 07:02:33;;;;;;;2.00;0.70;;;6.70;83.50;;;;;;4937466;29;20499;-74
2021/12/01 07:05:00;;;;;;;2.00;0.60;;;6.70;84.00;;;;;;4937871;29;20503;-74
2021/12/01 07:07:26;;;;;;;2.17;0.70;;;6.70;83.80;;;;;;4937811;29;20448;-75
2021/12/01 07:09:54;;;;;;;2.10;0.77;;;6.80;83.60;;;;;;4937988;29;20443;-74
2021/12/01 07:12:22;;;;;;;1.90;0.60;;;6.70;82.90;;;;;;4937671;29;20479;-73
2021/12/01 07:14:49;;;;;;;2.03;0.60;;;6.70;83.10;;;;;;4937793;29;20479;-73
2021/12/01 07:17:16;;;;;;;2.30;1.23;;;6.70;83.40;;;;;;4937751;29;20558;-73
2021/12/01 07:19:43;;;;;;;2.00;0.70;;;6.70;82.80;;;;;;4937766;29;20447;-73
2021/12/01 07:22:10;;;;;;;2.10;0.60;;;6.70;83.80;;;;;;4937563;29;20468;-73
2021/12/01 07:24:37;;;;;;;1.93;0.60;;;6.80;82.50;;;;;;4937311;29;20506;-73
2021/12/01 07:27:04;;;;;;;1.90;0.60;;;7.00;82.80;;;;;;4937790;29;20516;-72
2021/12/01 07:29:34;;;;;;;1.97;0.60;;;6.90;81.90;;;;;;4937602;29;20831;-73
2021/12/01 07:32:01;;;;;;;2.20;0.90;;;7.00;83.30;;;;;;4937804;29;20471;-74
2021/12/01 07:34:27;;;;;;;1.93;0.60;;;7.10;82.40;;;;;;4937426;29;20515;-74
2021/12/01 07:36:54;;;;;;;2.07;0.70;;;7.10;82.00;;;;;;4937431;29;20479;-73
2021/12/01 07:39:21;;;;;;;2.00;0.67;;;7.00;82.00;;;;;;4937317;29;20456;-73
2021/12/01 07:41:48;;;;;;;2.20;0.60;;;7.00;81.80;;;;;;4937200;29;20480;-73
2021/12/01 07:44:15;;;;;;;1.97;0.60;;;7.00;81.90;;;;;;4937320;29;20447;-73
2021/12/01 07:46:43;;;;;;;1.93;0.60;;;7.20;82.30;;;;;;4937576;29;20515;-73
2021/12/01 07:49:10;;;;;;;2.00;0.60;;;7.20;81.70;;;;;;4937489;29;20458;-73
2021/12/01 07:51:37;;;;;;;2.10;0.70;;;7.20;81.10;;;;;;4937013;29;20479;-73
2021/12/01 07:54:03;;;;;;;1.93;0.60;;;7.20;81.30;;;;;;4937169;29;20456;-73
2021/12/01 07:56:30;;;;;;;1.93;0.60;;;7.20;81.80;;;;;;4937165;29;20904;-73
2021/12/01 07:58:57;;;;;;;2.00;0.70;;;7.20;81.30;;;;;;4937347;29;20455;-73
2021/12/01 08:01:24;;;;;;;1.90;0.60;;;7.20;81.40;;;;;;4936468;29;21018;-73
2021/12/01 08:03:52;;;;;;;1.97;0.60;;;7.10;81.50;;;;;;4936970;29;20448;-73
2021/12/01 08:06:18;;;;;;;2.50;0.70;;;7.10;82.00;;;;;;4937227;29;20503;-73
2021/12/01 08:08:45;;;;;;;2.10;0.60;;;7.10;81.90;;;;;;4937434;29;20444;-73
2021/12/01 08:11:12;;;;;;;1.93;0.60;;;7.20;82.30;;;;;;4936665;29;20472;-73
2021/12/01 08:13:39;;;;;;;2.00;0.60;;;7.20;82.20;;;;;;4937155;29;20459;-73
2021/12/01 08:16:06;;;;;;;2.40;0.70;;;7.40;81.80;;;;;;4936791;29;20459;-74
2021/12/01 08:18:33;;;;;;;2.10;0.60;;;7.50;82.80;;;;;;4937403;29;20542;-73
2021/12/01 08:21:01;;;;;;;2.00;0.60;;;7.70;80.50;;;;;;4938479;29;20471;-73
2021/12/01 08:23:28;;;;;;;1.90;0.60;;;8.00;80.10;;;;;;4937204;29;20503;-70
2021/12/01 08:25:55;;;;;;;2.00;0.60;;;8.00;79.80;;;;;;4937115;29;20503;-70
2021/12/01 08:28:21;;;;;;;1.90;0.60;;;8.10;80.40;;;;;;4937429;29;20443;-70
2021/12/01 08:30:48;;;;;;;2.00;0.60;;;8.10;79.90;;;;;;4936791;29;20527;-71
2021/12/01 08:33:15;;;;;;;2.80;0.60;;;8.00;79.50;;;;;;4936868;29;20503;-71
2021/12/01 08:35:41;;;;;;;2.10;0.60;;;8.00;80.10;;;;;;4937023;29;20451;-70
2021/12/01 08:38:09;;;;;;;1.90;0.60;;;8.00;80.10;;;;;;4936567;29;20487;-70
2021/12/01 08:40:37;;;;;;;2.20;0.67;;;7.90;79.90;;;;;;4936760;29;20448;-71
2021/12/01 08:43:03;;;;;;;2.10;0.70;;;7.90;80.50;;;;;;4936735;29;20452;-70
2021/12/01 08:45:32;;;;;;;1.90;0.60;;;7.90;80.70;;;;;;4936390;29;20463;-70
2021/12/01 08:47:59;;;;;;;1.90;0.60;;;7.90;81.00;;;;;;4936665;29;20452;-71
2021/12/01 08:50:26;;;;;;;2.10;0.70;;;7.80;80.80;;;;;;4936149;29;20466;-71
2021/12/01 08:52:53;;;;;;;2.10;0.70;;;7.90;80.70;;;;;;4936473;29;20466;-71
2021/12/01 08:55:23;;;;;;;1.90;0.60;;;7.70;80.90;;;;;;4936750;29;20478;-71
2021/12/01 08:57:50;;;;;;;2.03;0.67;;;7.90;81.30;;;;;;4936270;29;20495;-70
2021/12/01 09:00:21;;;;;;;2.00;0.60;;;8.00;80.80;;;;;;4936153;29;20940;-71
2021/12/01 09:02:47;;;;;;;1.97;0.60;;;8.00;80.00;;;;;;4936619;29;20988;-71
2021/12/01 09:05:14;;;;;;;2.07;0.77;;;7.90;80.10;;;;;;4936216;29;20460;-71
2021/12/01 09:07:42;;;;;;;1.97;0.60;;;7.90;80.10;;;;;;4936226;29;20833;-71
2021/12/01 09:10:09;;;;;;;2.00;0.60;;;7.90;81.20;;;;;;4936566;29;20456;-71
2021/12/01 09:12:39;;;;;;;1.97;0.60;;;8.10;80.10;;;;;;4936578;29;20837;-71
2021/12/01 09:15:06;;;;;;;2.00;0.70;;;8.20;79.80;;;;;;4936114;29;20489;-71
2021/12/01 09:17:33;;;;;;;1.90;0.60;;;8.30;79.90;;;;;;4936140;29;20844;-70
2021/12/01 09:20:01;;;;;;;1.90;0.60;;;8.40;79.60;;;;;;4939828;29;20462;-71
2021/12/01 09:22:27;;;;;;;2.07;0.70;;;8.40;79.20;;;;;;4939761;29;20483;-71
2021/12/01 09:24:54;;;;;;;2.10;0.70;;;8.50;78.80;;;;;;4939786;29;20951;-71
2021/12/01 09:27:21;;;;;;;2.00;0.60;;;8.50;79.10;;;;;;4939734;29;20542;-71
2021/12/01 09:29:49;;;;;;;2.03;0.63;;;8.60;78.70;;;;;;4940028;29;20456;-71
2021/12/01 09:32:16;;;;;;;1.90;0.60;;;8.60;79.00;;;;;;4939741;29;20468;-70
2021/12/01 09:34:44;;;;;;;1.90;0.60;;;8.60;78.90;;;;;;4939670;29;20456;-70
2021/12/01 09:37:11;;;;;;;1.90;0.60;;;8.60;78.70;;;;;;4939512;29;20494;-70
2021/12/01 09:39:38;;;;;;;2.00;0.60;;;8.70;78.90;;;;;;4939691;29;20459;-70
2021/12/01 09:42:05;;;;;;;1.90;0.60;;;8.60;78.80;;;;;;4939575;29;20498;-71
2021/12/01 09:44:33;;;;;;;1.97;0.60;;;8.70;79.10;;;;;;4939674;29;20455;-71
2021/12/01 09:47:01;;;;;;;1.90;0.60;;;8.70;79.00;;;;;;4939601;29;20456;-71
2021/12/01 09:49:28;;;;;;;1.90;0.60;;;8.60;79.10;;;;;;4939672;29;20451;-70
2021/12/01 09:51:55;;;;;;;1.90;0.60;;;8.70;79.30;;;;;;4939506;29;20511;-71
2021/12/01 09:54:22;;;;;;;2.00;0.70;;;8.70;79.80;;;;;;4939402;29;20455;-71
2021/12/01 09:56:48;;;;;;;2.00;0.60;;;8.80;79.20;;;;;;4939449;29;20479;-70
2021/12/01 09:59:15;;;;;;;2.10;0.70;;;8.80;78.70;;;;;;4939244;29;20451;-70
2021/12/01 10:01:42;;;;;;;2.00;0.60;;;8.90;78.50;;;;;;4939030;29;20555;-70
2021/12/01 10:04:11;;;;;;;2.00;0.60;;;8.90;79.40;;;;;;4939647;29;21068;-70
2021/12/01 10:06:37;;;;;;;2.30;0.80;;;9.00;78.90;;;;;;4939149;29;20458;-70
2021/12/01 10:09:07;;;;;;;2.03;0.73;;;8.80;78.10;;;;;;4939072;29;20463;-71
2021/12/01 10:11:36;;;;;;;2.00;0.70;;;8.70;79.20;;;;;;4939319;29;20511;-71
2021/12/01 10:14:05;;;;;;;2.10;0.70;;;8.70;79.00;;;;;;4939921;29;20939;-71
2021/12/01 10:16:36;;;;;;;1.90;0.60;;;8.70;79.20;;;;;;4955777;23;20560;-71
2021/12/01 10:19:05;;;;;;;2.00;0.60;;;8.80;79.40;;;;;;4919614;29;20512;-69
2021/12/01 10:21:35;;;;;;;2.00;0.70;;;8.90;79.10;;;;;;4919520;29;20468;-70
2021/12/01 10:24:07;;;;;;;1.90;0.60;;;8.80;78.70;;;;;;4919151;29;20448;-71
2021/12/01 10:26:38;;;;;;;1.90;0.50;;;8.90;79.20;;;;;;4919102;29;20473;-71
2021/12/01 10:29:06;;;;;;;1.97;0.60;;;8.80;78.70;;;;;;4918398;29;20445;-70
2021/12/01 10:31:39;;;;;;;2.00;0.67;;;8.80;79.70;;;;;;4918760;29;20456;-71
2021/12/01 10:34:25;;;;;;;1.97;0.60;;;8.90;79.10;;;;;;4919195;29;20445;-70
2021/12/01 10:37:12;;;;;;;1.90;0.60;;;9.00;78.60;;;;;;4918985;29;20508;-71
2021/12/01 10:39:41;;;;;;;1.97;0.67;;;9.10;79.40;;;;;;4919075;29;20441;-70
2021/12/01 10:42:10;;;;;;;2.10;0.70;;;9.20;78.50;;;;;;4918753;29;20968;-70
2021/12/01 10:44:37;;;;;;;1.93;0.60;;;9.20;78.30;;;;;;4918872;29;20448;-70
2021/12/01 10:47:09;;;;;;;2.00;0.60;;;9.20;78.40;;;;;;4918482;29;21004;-70
2021/12/01 10:49:40;;;;;;;2.00;0.60;;;9.10;78.50;;;;;;4918710;29;20484;-71
2021/12/01 10:52:28;;;;;;;2.00;0.70;;;9.20;79.10;;;;;;4918329;29;20464;-70
2021/12/01 10:55:04;;;;;;;2.00;0.60;;;9.30;78.50;;;;;;4918683;29;20826;-71
2021/12/01 10:57:30;;;;;;;1.93;0.60;;;9.30;78.80;;;;;;4918541;29;20495;-71
2021/12/01 10:59:57;;;;;;;2.07;0.67;;;9.40;78.40;;;;;;4918636;29;20495;-71
2021/12/01 11:02:24;;;;;;;1.90;0.60;;;9.50;78.90;;;;;;4918514;29;20460;-71
2021/12/01 11:04:52;;;;;;;1.90;0.60;;;9.60;78.30;;;;;;4918501;29;20452;-70
2021/12/01 11:07:28;;;;;;;2.00;0.70;;;9.60;77.90;;;;;;4918118;29;20972;-71
2021/12/01 11:10:15;;;;;;;2.20;0.70;;;9.50;78.90;;;;;;4918513;29;20452;-71
2021/12/01 11:12:42;;;;;;;2.00;0.60;;;9.60;79.30;;;;;;4918444;29;20444;-71
2021/12/01 11:15:26;;;;;;;1.90;0.60;;;9.80;78.80;;;;;;4918288;29;20448;-71
2021/12/01 11:17:54;;;;;;;1.90;0.60;;;9.90;79.40;;;;;;4916076;29;20996;-71
2021/12/01 11:20:36;;;;;;;2.33;0.70;;;10.00;79.50;;;;;;4918041;29;20939;-71
2021/12/01 11:23:19;;;;;;;1.90;0.60;;;10.00;78.30;;;;;;4918228;29;20955;-71
2021/12/01 11:25:48;;;;;;;1.93;0.60;;;10.00;78.90;;;;;;4918141;29;20452;-71
2021/12/01 11:28:17;;;;;;;2.00;0.70;;;9.80;79.00;;;;;;4918153;29;20812;-71
2021/12/01 11:30:46;;;;;;;2.10;0.60;;;9.90;80.40;;;;;;4917973;29;20460;-70
2021/12/01 11:33:16;;;;;;;1.97;0.67;;;10.10;79.70;;;;;;4917994;29;20455;-71
2021/12/01 11:35:45;;;;;;;2.13;0.70;;;10.20;79.00;;;;;;4917964;29;20476;-71
2021/12/01 11:38:14;;;;;;;2.00;0.70;;;10.30;79.10;;;;;;4917814;29;20488;-71
2021/12/01 11:40:41;;;;;;;1.93;0.60;;;10.50;80.00;;;;;;4917601;29;20513;-71
2021/12/01 11:43:10;;;;;;;1.90;0.60;;;10.40;79.40;;;;;;4918439;29;20464;-70
2021/12/01 11:45:38;;;;;;;1.93;0.60;;;10.20;80.30;;;;;;4917853;29;20453;-71
2021/12/01 11:48:08;;;;;;;2.00;0.60;;;10.20;81.00;;;;;;4917923;29;20501;-71
2021/12/01 11:50:40;;;;;;;1.90;0.60;;;10.10;81.60;;;;;;4917738;29;20453;-71
2021/12/01 11:53:20;;;;;;;2.20;0.80;;;10.00;82.00;;;;;;4917728;29;20811;-71
2021/12/01 11:55:59;;;;;;;2.13;0.60;;;9.70;82.80;;;;;;4917421;29;20443;-71
2021/12/01 11:58:56;;;;;;;2.10;0.70;;;9.70;83.20;;;;;;4917062;29;21001;-71
2021/12/01 12:01:50;;;;;;;2.03;0.73;;;9.90;83.90;;;;;;4917770;29;20437;-71
2021/12/01 12:04:22;;;;;;;2.20;0.70;;;9.70;83.70;;;;;;4917582;29;20444;-71
2021/12/01 12:06:52;;;;;;;2.00;0.70;;;9.70;84.20;;;;;;4917235;29;20503;-70
2021/12/01 12:09:21;;;;;;;2.10;0.70;;;9.60;84.50;;;;;;4917184;29;20436;-70
2021/12/01 12:11:50;;;;;;;2.00;0.67;;;9.60;84.20;;;;;;4917429;29;20452;-71
2021/12/01 12:14:19;;;;;;;2.00;0.70;;;9.80;82.90;;;;;;4917344;29;20452;-71
2021/12/01 12:17:01;;;;;;;2.20;0.80;;;9.60;83.70;;;;;;4917000;29;20577;-71
2021/12/01 12:19:51;;;;;;;2.00;0.70;;;9.40;84.40;;;;;;4917239;29;20464;-71
2021/12/01 12:22:22;;;;;;;2.00;0.70;;;9.60;84.50;;;;;;4913864;29;20457;-71
2021/12/01 12:24:53;;;;;;;2.00;0.80;;;9.50;84.20;;;;;;4917248;29;20456;-70
2021/12/01 12:27:40;;;;;;;2.10;0.80;;;9.40;84.40;;;;;;4917098;29;20491;-71
2021/12/01 12:30:11;;;;;;;2.43;0.90;;;9.40;84.50;;;;;;4916983;29;20433;-70
2021/12/01 12:32:39;;;;;;;2.20;0.77;;;9.20;84.50;;;;;;4917018;29;20433;-70
2021/12/01 12:35:10;;;;;;;2.00;0.70;;;9.00;85.90;;;;;;4916963;29;20448;-70
2021/12/01 12:37:37;;;;;;;2.20;0.80;;;9.10;85.70;;;;;;4916871;29;20495;-71
2021/12/01 12:40:11;;;;;;;2.70;1.10;;;9.00;85.70;;;;;;4916567;29;20941;-71
2021/12/01 12:43:05;;;;;;;2.50;0.80;;;9.00;85.90;;;;;;4916961;29;20448;-71
2021/12/01 12:45:33;;;;;;;2.00;0.70;;;9.00;86.20;;;;;;4916968;29;20444;-71
2021/12/01 12:48:00;;;;;;;2.03;0.80;;;8.90;85.80;;;;;;4916785;29;20452;-70
2021/12/01 12:50:27;;;;;;;2.00;0.70;;;8.90;86.00;;;;;;4916354;29;20943;-71
2021/12/01 12:53:04;;;;;;;2.13;0.80;;;8.90;86.70;;;;;;4915944;29;20456;-71
2021/12/01 12:55:40;;;;;;;2.00;0.70;;;9.00;86.30;;;;;;4916587;29;20440;-70
2021/12/01 12:58:08;;;;;;;1.97;0.70;;;9.00;86.80;;;;;;4916713;29;20484;-71
2021/12/01 13:00:45;;;;;;;2.10;0.70;;;9.00;86.60;;;;;;4916553;29;20457;-71
2021/12/01 13:03:32;;;;;;;2.30;0.90;;;9.00;87.50;;;;;;4916864;29;20444;-70
2021/12/01 13:06:00;;;;;;;2.87;0.80;;;9.10;86.80;;;;;;4917753;29;20472;-70
2021/12/01 13:08:29;;;;;;;2.20;1.00;;;9.10;86.70;;;;;;4916121;29;20945;-70
2021/12/01 13:11:00;;;;;;;2.10;0.77;;;8.90;88.00;;;;;;4916541;29;20500;-71
2021/12/01 13:13:28;;;;;;;2.07;0.87;;;9.00;88.10;;;;;;4916259;29;20504;-71
2021/12/01 13:15:57;;;;;;;2.13;0.90;;;9.10;88.40;;;;;;4916294;29;20496;-71
2021/12/01 13:18:26;;;;;;;2.10;0.70;;;9.10;87.60;;;;;;4916277;29;20473;-70
2021/12/01 13:20:54;;;;;;;2.07;0.80;;;9.10;88.30;;;;;;4916510;29;20456;-71
2021/12/01 13:23:23;;;;;;;2.10;0.80;;;9.10;88.40;;;;;;4916346;29;20528;-70
2021/12/01 13:26:05;;;;;;;2.03;0.70;;;9.20;88.00;;;;;;4916340;29;20495;-70
2021/12/01 13:28:40;;;;;;;2.37;0.90;;;9.20;87.70;;;;;;4916448;29;20440;-71
2021/12/01 13:31:11;;;;;;;2.00;0.67;;;9.00;88.00;;;;;;4916368;29;20487;-70
2021/12/01 13:33:54;;;;;;;2.73;0.90;;;9.00;88.20;;;;;;4916429;29;20472;-70
2021/12/01 13:36:22;;;;;;;2.07;0.70;;;8.90;88.80;;;;;;4915897;29;20875;-70
2021/12/01 13:38:57;;;;;;;2.00;0.70;;;8.80;89.30;;;;;;4915885;29;21072;-70
2021/12/01 13:41:24;;;;;;;2.13;0.73;;;8.90;89.10;;;;;;4916309;29;20433;-70
2021/12/01 13:44:01;;;;;;;3.40;0.80;;;8.90;88.80;;;;;;4916211;29;20507;-71
2021/12/01 13:46:29;;;;;;;2.10;0.80;;;8.90;88.50;;;;;;4915759;29;20976;-71
2021/12/01 13:48:56;;;;;;;2.17;0.70;;;9.00;88.60;;;;;;4916168;29;20524;-71
2021/12/01 13:51:24;;;;;;;1.97;0.70;;;8.90;88.30;;;;;;4916198;29;20460;-71
2021/12/01 13:53:52;;;;;;;2.20;0.80;;;8.90;88.70;;;;;;4915843;29;20961;-71
2021/12/01 13:56:20;;;;;;;2.03;0.70;;;8.90;88.20;;;;;;4916129;29;20606;-70
2021/12/01 13:58:56;;;;;;;2.10;0.70;;;8.90;88.00;;;;;;4916120;29;20488;-71
2021/12/01 14:01:23;;;;;;;2.40;0.90;;;8.90;88.40;;;;;;4916372;29;20432;-70
2021/12/01 14:04:00;;;;;;;2.10;0.80;;;8.80;88.50;;;;;;4916905;29;20455;-71
2021/12/01 14:06:32;;;;;;;2.10;0.80;;;8.80;88.40;;;;;;4919746;29;20472;-71
2021/12/01 14:09:04;;;;;;;2.10;0.70;;;8.80;88.70;;;;;;4919768;29;20448;-72
2021/12/01 14:11:34;;;;;;;2.03;0.70;;;8.80;88.70;;;;;;4919601;29;20452;-71
2021/12/01 14:14:03;;;;;;;2.30;0.77;;;8.80;88.30;;;;;;4919511;29;20452;-71
2021/12/01 14:16:32;;;;;;;2.10;0.70;;;8.80;88.40;;;;;;4919033;29;20488;-72
2021/12/01 14:19:00;;;;;;;1.97;0.60;;;8.90;87.50;;;;;;4919278;29;20488;-72
2021/12/01 14:21:28;;;;;;;2.00;0.60;;;8.80;87.50;;;;;;4919057;29;20945;-71
2021/12/01 14:23:58;;;;;;;1.90;0.60;;;8.80;87.80;;;;;;4919021;29;20877;-71
2021/12/01 14:26:30;;;;;;;2.20;0.70;;;8.80;87.00;;;;;;4919168;29;20532;-71
2021/12/01 14:29:00;;;;;;;1.90;0.60;;;8.80;86.50;;;;;;4919337;29;20839;-71
2021/12/01 14:31:27;;;;;;;2.00;0.60;;;8.70;87.00;;;;;;4919308;29;20448;-71
2021/12/01 14:34:07;;;;;;;2.13;0.70;;;8.70;87.20;;;;;;4919157;29;20460;-71
2021/12/01 14:36:35;;;;;;;1.97;0.60;;;8.70;87.20;;;;;;4919505;29;20884;-70
2021/12/01 14:39:04;;;;;;;2.00;0.60;;;8.70;87.20;;;;;;4918965;29;20480;-71
2021/12/01 14:41:31;;;;;;;2.10;0.80;;;8.80;87.50;;;;;;4918847;29;20448;-70
2021/12/01 14:44:00;;;;;;;2.20;0.60;;;8.80;87.50;;;;;;4919001;29;20476;-71
2021/12/01 14:46:31;;;;;;;1.90;0.50;;;8.80;87.20;;;;;;4918706;29;20476;-71
2021/12/01 14:49:08;;;;;;;2.17;0.70;;;8.70;87.80;;;;;;4918715;29;20500;-71
2021/12/01 14:51:40;;;;;;;2.10;0.60;;;8.50;88.40;;;;;;4918800;29;20441;-72
2021/12/01 14:54:12;;;;;;;2.00;0.63;;;8.60;88.70;;;;;;4918528;29;20433;-71
2021/12/01 14:56:40;;;;;;;1.97;0.60;;;8.60;88.60;;;;;;4918395;29;21001;-71
2021/12/01 14:59:15;;;;;;;2.00;0.60;;;8.70;88.60;;;;;;4918567;29;20487;-70
2021/12/01 15:01:41;;;;;;;2.00;0.70;;;8.70;87.90;;;;;;4918626;29;20826;-70
2021/12/01 15:04:11;;;;;;;2.00;0.70;;;8.70;88.10;;;;;;4918578;29;20520;-71
2021/12/01 15:06:38;;;;;;;2.13;0.80;;;8.70;88.30;;;;;;4918440;29;21060;-71
2021/12/01 15:09:05;;;;;;;2.10;0.70;;;8.60;87.40;;;;;;4918521;29;20451;-71
2021/12/01 15:11:41;;;;;;;2.00;0.60;;;8.70;87.80;;;;;;4918048;29;20461;-70
2021/12/01 15:14:08;;;;;;;2.00;0.60;;;8.60;87.40;;;;;;4918402;29;20528;-72
2021/12/01 15:16:36;;;;;;;1.93;0.60;;;8.70;87.90;;;;;;4917201;29;20491;-71
2021/12/01 15:19:11;;;;;;;2.13;0.70;;;8.70;87.60;;;;;;4918674;29;20628;-71
2021/12/01 15:21:43;;;;;;;5.60;0.83;;;8.80;87.30;;;;;;4918499;29;20972;-71
2021/12/01 15:24:13;;;;;;;4.03;0.80;;;8.80;87.10;;;;;;4918000;29;20976;-70
2021/12/01 15:26:42;;;;;;;2.10;0.80;;;8.80;86.90;;;;;;4918651;29;20476;-70
2021/12/01 15:29:11;;;;;;;2.10;0.70;;;8.80;87.10;;;;;;4918567;29;20452;-70
2021/12/01 15:31:51;;;;;;;1.97;0.60;;;8.70;86.90;;;;;;4918683;29;20456;-70
2021/12/01 15:34:19;;;;;;;2.10;0.70;;;8.70;86.90;;;;;;4918448;29;20443;-70
2021/12/01 15:36:48;;;;;;;2.00;0.70;;;8.70;86.90;;;;;;4918418;29;20475;-70
2021/12/01 15:39:17;;;;;;;2.20;0.80;;;8.80;86.40;;;;;;4918248;29;20485;-70
2021/12/01 15:41:45;;;;;;;2.63;0.70;;;8.80;85.90;;;;;;4918061;29;20461;-71
2021/12/01 15:44:13;;;;;;;2.50;0.87;;;8.80;86.20;;;;;;4918877;29;20804;-70
2021/12/01 15:46:40;;;;;;;1.93;0.60;;;8.70;86.40;;;;;;4918251;29;20476;-70
2021/12/01 15:49:07;;;;;;;1.93;0.60;;;8.70;86.90;;;;;;4918576;29;20448;-70
2021/12/01 15:51:33;;;;;;;2.30;0.70;;;8.60;86.60;;;;;;4917677;29;20475;-70
2021/12/01 15:54:02;;;;;;;2.00;0.60;;;8.60;86.90;;;;;;4917939;29;20989;-70
2021/12/01 15:56:29;;;;;;;2.93;0.60;;;8.60;86.70;;;;;;4917916;29;20473;-70
2021/12/01 15:58:56;;;;;;;1.90;0.60;;;8.70;86.70;;;;;;4917980;29;20480;-70
2021/12/01 16:01:23;;;;;;;2.20;0.60;;;8.60;86.60;;;;;;4917740;29;20964;-70
2021/12/01 16:03:50;;;;;;;1.90;0.60;;;8.60;87.20;;;;;;4917781;29;20449;-69
2021/12/01 16:06:18;;;;;;;2.10;0.70;;;8.50;87.20;;;;;;4917300;29;20571;-70
2021/12/01 16:08:45;;;;;;;2.00;0.70;;;8.60;87.40;;;;;;4917425;29;20449;-70
2021/12/01 16:11:14;;;;;;;2.00;0.70;;;8.50;87.80;;;;;;4917615;29;20448;-70
2021/12/01 16:13:42;;;;;;;2.00;0.60;;;8.60;87.50;;;;;;4917538;29;20448;-70
2021/12/01 16:18:39;;;;;;;2.00;0.60;;;8.40;87.70;;;;;;4936092;29;20577;-74
2021/12/01 16:21:06;;;;;;;2.73;0.73;;;8.40;88.10;;;;;;4938563;29;21011;-74
2021/12/01 16:23:35;;;;;;;2.00;0.60;;;8.40;88.20;;;;;;4937940;29;20443;-74
2021/12/01 16:26:04;;;;;;;2.00;0.70;;;8.30;87.80;;;;;;4937913;29;20503;-73
2021/12/01 16:28:33;;;;;;;1.93;0.60;;;8.40;87.80;;;;;;4919962;29;20512;-73
2021/12/01 16:31:00;;;;;;;1.90;0.60;;;8.40;87.80;;;;;;4920265;29;20453;-74
2021/12/01 16:33:28;;;;;;;1.90;0.60;;;8.50;87.10;;;;;;4919308;29;20455;-74
2021/12/01 16:35:55;;;;;;;1.90;0.60;;;8.40;86.60;;;;;;4919520;29;20496;-74
2021/12/01 16:38:22;;;;;;;2.00;0.60;;;8.40;86.60;;;;;;4918055;29;20856;-73
2021/12/01 16:40:51;;;;;;;2.10;0.70;;;8.50;86.00;;;;;;4919834;29;20857;-74
2021/12/01 16:43:20;;;;;;;2.13;0.73;;;8.70;85.60;;;;;;4923007;29;20552;-74
2021/12/01 16:45:49;;;;;;;2.60;0.80;;;8.70;84.50;;;;;;4919434;29;20484;-74
2021/12/01 16:48:16;;;;;;;2.00;0.60;;;8.70;84.40;;;;;;4917933;29;20496;-74
2021/12/01 16:50:43;;;;;;;2.13;0.77;;;8.80;84.20;;;;;;4920955;29;20800;-74
2021/12/01 16:53:10;;;;;;;1.97;0.60;;;8.90;83.90;;;;;;4920115;29;20500;-74
2021/12/01 16:55:37;;;;;;;2.00;0.60;;;8.90;83.10;;;;;;4918647;29;20816;-73
2021/12/01 16:58:06;;;;;;;1.97;0.60;;;8.80;82.10;;;;;;4920887;29;20472;-73
2021/12/01 17:00:36;;;;;;;2.00;0.70;;;8.70;82.70;;;;;;4920296;29;21071;-74
2021/12/01 17:03:06;;;;;;;2.10;0.80;;;8.80;81.90;;;;;;4919003;29;20437;-73
2021/12/01 17:05:34;;;;;;;2.00;0.60;;;8.80;81.60;;;;;;4917960;29;20971;-73
2021/12/01 17:10:43;;;;;;;2.13;0.70;;;8.70;81.50;;;;;;4919935;29;20446;-74
2021/12/01 17:13:11;;;;;;;2.10;0.70;;;8.80;82.30;;;;;;4921755;29;20464;-73